createdAt,value
2023-08-05T00:03:42.189Z,100392.69
2023-08-05T00:08:45.007Z,100388.31
2023-08-05T00:13:46.530Z,100386.75
2023-08-05T00:18:47.977Z,100383.31
2023-08-05T00:23:49.552Z,100381.63
2023-08-05T00:28:51.017Z,100363.84
2023-08-05T00:33:52.590Z,100362.31
2023-08-05T00:38:54.027Z,100357.88
2023-08-05T00:43:55.482Z,100357.06
2023-08-05T00:48:57.254Z,100341.03
2023-08-05T00:53:58.866Z,100323.31
2023-08-05T00:59:00.521Z,100321.63
2023-08-05T01:04:02.008Z,100333.44
2023-08-05T01:09:03.603Z,100352.41
2023-08-05T01:14:05.080Z,100346.28
2023-08-05T01:19:15.033Z,100341.97
2023-08-05T01:24:19.280Z,100344.84
2023-08-05T01:29:20.805Z,100344.09
2023-08-05T01:34:22.536Z,100327.25
2023-08-05T01:39:24.093Z,100317.44
2023-08-05T01:44:25.508Z,100318.59
2023-08-05T01:49:26.967Z,100324.13
2023-08-05T01:54:28.490Z,100336.72
2023-08-05T01:59:29.922Z,100343.13
2023-08-05T02:04:31.392Z,100334.38
2023-08-05T02:09:32.830Z,100349.81
2023-08-05T02:14:34.653Z,100357.00
2023-08-05T02:19:36.143Z,100344.69
2023-08-05T02:24:37.632Z,100345.63
2023-08-05T02:29:39.496Z,100339.44
2023-08-05T02:34:40.964Z,100340.44
2023-08-05T02:39:42.605Z,100328.06
2023-08-05T02:44:44.094Z,100319.22
2023-08-05T02:49:45.607Z,100316.72
2023-08-05T02:54:47.065Z,100321.44
2023-08-05T02:59:48.740Z,100319.88
2023-08-05T03:04:50.199Z,100332.69
2023-08-05T03:09:51.680Z,100345.41
2023-08-05T03:14:53.203Z,100317.13
2023-08-05T03:19:54.950Z,100320.69
2023-08-05T03:24:56.452Z,100329.88
2023-08-05T03:29:57.936Z,100324.63
2023-08-05T03:34:59.414Z,100344.59
2023-08-05T03:40:00.902Z,100344.72
2023-08-05T03:45:02.382Z,100337.72
2023-08-05T03:50:04.747Z,100341.22
2023-08-05T03:55:06.677Z,100331.59
2023-08-05T04:00:10.569Z,100340.53
2023-08-05T04:05:12.061Z,100344.22
2023-08-05T04:10:14.365Z,100347.81
2023-08-05T04:15:17.976Z,100351.44
2023-08-05T04:20:19.468Z,100337.22
2023-08-05T04:25:20.993Z,100335.41
2023-08-05T04:30:22.460Z,100333.66
2023-08-05T04:35:23.973Z,100351.50
2023-08-05T04:40:25.433Z,100351.50
2023-08-05T04:45:26.961Z,100352.38
2023-08-05T04:50:28.594Z,100357.81
2023-08-05T04:55:30.036Z,100359.69
2023-08-05T05:00:31.490Z,100363.31
2023-08-05T05:05:34.829Z,100386.47
2023-08-05T05:10:36.429Z,100387.41
2023-08-05T05:15:38.040Z,100400.81
2023-08-05T05:20:39.507Z,100385.47
2023-08-05T05:25:41.033Z,100384.53
2023-08-05T05:30:42.595Z,100361.25
2023-08-05T05:35:44.091Z,100364.56
2023-08-05T05:40:45.579Z,100360.06
2023-08-05T05:45:47.875Z,100357.06
2023-08-05T05:50:52.642Z,100348.09
2023-08-05T05:55:56.822Z,100351.53
2023-08-05T06:00:58.391Z,100353.22
2023-08-05T06:06:00.241Z,100351.41
2023-08-05T06:11:03.759Z,100349.44
2023-08-05T06:16:06.224Z,100333.06
2023-08-05T06:21:07.897Z,100321.22
2023-08-05T06:26:09.421Z,100324.66
2023-08-05T06:31:11.067Z,100326.22
2023-08-05T06:36:12.642Z,100327.91
2023-08-05T06:41:14.122Z,100328.56
2023-08-05T06:46:15.932Z,100338.19
2023-08-05T06:51:17.514Z,100319.34
2023-08-05T06:56:19.011Z,100332.50
2023-08-05T07:01:20.576Z,100333.25
2023-08-05T07:06:22.105Z,100333.97
2023-08-05T07:11:23.591Z,100344.56
2023-08-05T07:16:25.185Z,100340.84
2023-08-05T07:21:26.764Z,100342.53
2023-08-05T07:26:28.246Z,100330.72
2023-08-05T07:31:29.782Z,100328.03
2023-08-05T07:36:32.012Z,100331.41
2023-08-05T07:41:33.477Z,100341.09
2023-08-05T07:46:37.263Z,100345.41
2023-08-05T07:51:40.560Z,100340.75
2023-08-05T07:56:43.217Z,100332.50
2023-08-05T08:01:46.666Z,100335.88
2023-08-05T08:06:48.592Z,100330.22
2023-08-05T08:11:50.465Z,100322.00
2023-08-05T08:16:52.167Z,100310.94
2023-08-05T08:21:53.813Z,100309.69
2023-08-05T08:26:55.513Z,100307.66
2023-08-05T08:31:57.059Z,100297.44
2023-08-05T08:36:58.651Z,100293.50
2023-08-05T08:42:00.352Z,100286.88
2023-08-05T08:47:02.007Z,100286.59
2023-08-05T08:52:05.033Z,100269.22
2023-08-05T08:57:07.185Z,100256.44
2023-08-05T09:02:13.017Z,100246.22
2023-08-05T09:07:14.509Z,100237.72
2023-08-05T09:12:16.210Z,100224.00
2023-08-05T09:17:17.691Z,100212.59
2023-08-05T09:22:19.138Z,100209.50
2023-08-05T09:27:20.657Z,100227.84
2023-08-05T09:32:32.621Z,100224.75
2023-08-05T09:37:40.852Z,100233.16
2023-08-05T09:42:43.028Z,100221.97
2023-08-05T09:47:48.569Z,100216.06
2023-08-05T09:52:53.324Z,100217.47
2023-08-05T09:57:55.663Z,100228.66
2023-08-05T10:02:58.528Z,100224.66
2023-08-05T10:08:01.118Z,100229.53
2023-08-05T10:13:15.499Z,100214.88
2023-08-05T10:18:18.959Z,100211.91
2023-08-05T10:23:24.685Z,100200.06
2023-08-05T10:28:29.053Z,100193.69
2023-08-05T10:33:30.693Z,100185.56
2023-08-05T10:38:43.060Z,100200.66
2023-08-05T10:43:44.545Z,100192.47
2023-08-05T10:48:49.551Z,100206.84
2023-08-05T10:53:56.798Z,100212.28
2023-08-05T10:59:02.404Z,100193.44
2023-08-05T11:04:28.451Z,100181.81
2023-08-05T11:09:35.848Z,100180.88
2023-08-05T11:14:38.083Z,100189.75
2023-08-05T11:19:56.466Z,100179.81
2023-08-05T11:25:02.729Z,100171.63
2023-08-05T11:30:14.546Z,100180.34
2023-08-05T11:35:16.140Z,100179.47
2023-08-05T11:40:17.700Z,100171.09
2023-08-05T11:45:19.333Z,100163.75
2023-08-05T11:50:20.824Z,100165.31
2023-08-05T11:55:22.414Z,100152.59
2023-08-05T12:00:24.868Z,100162.38
2023-08-05T12:05:26.452Z,100165.88
2023-08-05T12:10:28.592Z,100153.13
2023-08-05T12:15:30.794Z,100148.50
2023-08-05T12:20:37.500Z,100128.59
2023-08-05T12:25:39.114Z,100146.41
2023-08-05T12:30:40.562Z,100154.44
2023-08-05T12:35:42.109Z,100154.50
2023-08-05T12:40:43.600Z,100157.13
2023-08-05T12:45:45.120Z,100156.16
2023-08-05T12:50:51.325Z,100144.38
2023-08-05T12:55:53.065Z,100123.59
2023-08-05T13:00:54.668Z,100124.56
2023-08-05T13:05:56.319Z,100130.59
2023-08-05T13:10:57.781Z,100126.81
2023-08-05T13:15:59.270Z,100132.13
2023-08-05T13:21:00.921Z,100135.63
2023-08-05T13:26:02.462Z,100127.31
2023-08-05T13:31:04.949Z,100118.34
2023-08-05T13:36:06.509Z,100123.75
2023-08-05T13:41:08.041Z,100111.00
2023-08-05T13:46:10.631Z,100107.22
2023-08-05T13:51:12.293Z,100099.97
2023-08-05T13:56:13.906Z,100104.34
2023-08-05T14:01:16.337Z,100102.41
2023-08-05T14:06:18.678Z,100090.63
2023-08-05T14:11:20.202Z,100091.50
2023-08-05T14:16:21.758Z,100089.47
2023-08-05T14:21:24.093Z,100082.19
2023-08-05T14:26:25.645Z,100083.84
2023-08-05T14:31:27.150Z,100088.28
2023-08-05T14:36:28.649Z,100082.88
2023-08-05T14:41:31.884Z,100079.19
2023-08-05T14:46:33.438Z,100079.28
2023-08-05T14:51:34.987Z,100070.28
2023-08-05T14:56:36.453Z,100061.22
2023-08-05T15:01:38.329Z,100054.06
2023-08-05T15:06:39.812Z,100051.34
2023-08-05T15:11:41.320Z,100045.16
2023-08-05T15:16:42.841Z,100043.44
2023-08-05T15:21:44.287Z,100042.66
2023-08-05T15:26:45.894Z,100033.78
2023-08-05T15:31:50.185Z,100029.31
2023-08-05T15:36:52.003Z,100025.84
2023-08-05T15:41:54.511Z,100020.44
2023-08-05T15:46:56.186Z,100019.75
2023-08-05T15:51:58.461Z,100023.53
2023-08-05T15:57:04.405Z,100023.72
2023-08-05T16:02:06.736Z,100022.25
2023-08-05T16:07:08.287Z,100016.94
2023-08-05T16:12:10.512Z,100008.22
2023-08-05T16:17:11.978Z,100000.38
2023-08-05T16:22:15.107Z,99996.91
2023-08-05T16:27:17.548Z,100006.16
2023-08-05T16:32:19.112Z,99985.84
2023-08-05T16:37:20.792Z,99989.50
2023-08-05T16:42:22.237Z,99991.63
2023-08-05T16:47:23.756Z,99988.41
2023-08-05T16:52:25.277Z,99996.72
2023-08-05T17:02:28.541Z,99984.53
2023-08-05T17:07:30.173Z,99993.00
2023-08-05T17:12:31.644Z,100003.31
2023-08-05T17:17:34.173Z,100002.63
2023-08-05T17:22:38.780Z,99993.94
2023-08-05T17:27:42.112Z,99977.22
2023-08-05T17:32:44.708Z,99989.25
2023-08-05T17:37:46.286Z,99978.00
2023-08-05T17:42:49.861Z,99985.34
2023-08-05T17:47:51.489Z,99974.00
2023-08-05T17:52:53.045Z,99981.44
2023-08-05T17:57:54.489Z,99959.25
2023-08-05T18:02:56.036Z,99970.34
2023-08-05T18:07:58.369Z,99957.28
2023-08-05T18:12:59.809Z,99968.16
2023-08-05T18:18:02.947Z,99959.53
2023-08-05T18:23:04.787Z,99948.91
2023-08-05T18:28:06.320Z,99944.81
2023-08-05T18:33:07.787Z,99945.06
2023-08-05T18:38:09.394Z,99936.28
2023-08-05T18:43:10.928Z,99933.84
2023-08-05T18:48:12.634Z,99913.66
2023-08-05T18:53:14.212Z,99912.78
2023-08-05T18:58:16.064Z,99915.94
2023-08-05T19:03:17.545Z,99910.78
2023-08-05T19:08:19.053Z,99908.25
2023-08-05T19:13:20.531Z,99895.91
2023-08-05T19:18:21.971Z,99884.66
2023-08-05T19:23:23.407Z,99892.84
2023-08-05T19:28:24.994Z,99893.06
2023-08-05T19:33:26.454Z,99889.56
2023-08-05T19:38:27.930Z,99899.56
2023-08-05T19:43:29.691Z,99875.63
2023-08-05T19:48:31.136Z,99855.97
2023-08-05T19:53:33.577Z,99847.19
2023-08-05T19:58:35.110Z,99850.22
2023-08-05T20:03:36.826Z,99845.78
2023-08-05T20:08:38.312Z,99858.56
2023-08-05T20:13:39.742Z,99850.63
2023-08-05T20:18:41.256Z,99853.41
2023-08-05T20:23:42.746Z,99858.09
2023-08-05T20:28:44.279Z,99848.34
2023-08-05T20:33:45.765Z,99831.47
2023-08-05T20:38:47.249Z,99817.13
2023-08-05T20:43:48.868Z,99818.09
2023-08-05T20:48:50.435Z,99804.88
2023-08-05T20:53:51.895Z,99799.66
2023-08-05T20:58:53.321Z,99797.13
2023-08-05T21:03:55.012Z,99789.22
2023-08-05T21:08:56.552Z,99785.75
2023-08-05T21:13:58.065Z,99797.47
2023-08-05T21:18:59.756Z,99787.91
2023-08-05T21:24:01.624Z,99760.94
2023-08-05T21:29:03.189Z,99726.25
2023-08-05T21:34:06.036Z,99742.50
2023-08-05T21:39:07.518Z,99744.41
2023-08-05T21:44:08.950Z,99742.75
2023-08-05T21:49:10.642Z,99734.84
2023-08-05T21:54:12.145Z,99706.25
2023-08-05T21:59:13.633Z,99702.84
2023-08-05T22:04:15.143Z,99715.44
2023-08-05T22:09:16.591Z,99687.84
2023-08-05T22:14:18.036Z,99701.31
2023-08-05T22:19:19.853Z,99670.81
2023-08-05T22:24:34.715Z,99659.28
2023-08-05T22:29:41.242Z,99661.25
2023-08-05T22:34:43.085Z,99642.50
2023-08-05T22:39:44.544Z,99645.28
2023-08-05T22:44:46.145Z,99628.31
2023-08-05T22:49:47.799Z,99642.91
2023-08-05T22:54:49.304Z,99658.97
2023-08-05T22:59:53.961Z,99672.53
2023-08-05T23:04:55.434Z,99675.38
2023-08-05T23:09:57.058Z,99679.03
2023-08-05T23:14:58.493Z,99662.09
2023-08-05T23:19:59.933Z,99680.16
2023-08-05T23:25:01.399Z,99687.38
2023-08-05T23:30:02.932Z,99699.16
2023-08-05T23:35:04.724Z,99698.38
2023-08-05T23:40:07.029Z,99685.00
2023-08-05T23:45:08.851Z,99667.03
2023-08-05T23:50:10.629Z,99644.88
2023-08-05T23:55:12.166Z,99640.25
